Time;durP1;ratioP1;P1;durP2;ratioP2;P2;SDS_P1;SDS_P2;PMS_P1;PMS_P2;Temp;Humidity;BMP_temperature;BMP_pressure;BME280_temperature;BME280_humidity;BME280_pressure;Samples;Min_cycle;Max_cycle;Signal;HPM_P1;HPM_P2
2021/11/30 00:02:19;;;;;;;;;;;;;;;22.05;30.42;96438.66;5023096;28;915;-78
2021/11/30 00:04:44;;;;;;;;;;;;;;;22.32;31.16;96443.28;4981812;28;967;-77
2021/11/30 00:07:10;;;;;;;;;;;;;;;22.68;30.73;96441.34;4983704;28;885;-77
2021/11/30 00:12:04;;;;;;;;;;;;;;;22.68;29.55;96464.03;5002851;28;1169;-77
2021/11/30 00:14:30;;;;;;;;;;;;;;;22.24;30.32;96459.13;5003257;28;857;-77
2021/11/30 00:16:57;;;;;;;;;;;;;;;22.25;30.45;96460.69;5002292;28;1914;-78
2021/11/30 00:19:23;;;;;;;;;;;;;;;22.30;30.49;96462.84;5001087;28;1065;-77
2021/11/30 00:21:48;;;;;;;;;;;;;;;22.24;30.46;96456.28;4984191;28;893;-78
2021/11/30 00:24:14;;;;;;;;;;;;;;;22.31;30.22;96453.06;4962756;29;1005;-77
2021/11/30 00:26:39;;;;;;;;;;;;;;;22.38;30.27;96446.22;4963571;28;902;-78
2021/11/30 00:29:05;;;;;;;;;;;;;;;22.32;30.33;96442.50;4942486;29;1248;-77
2021/11/30 00:31:30;;;;;;;;;;;;;;;22.25;30.38;96440.84;4945173;29;959;-78
2021/11/30 00:33:56;;;;;;;;;;;;;;;22.27;30.23;96438.31;4942206;29;862;-78
2021/11/30 00:36:21;;;;;;;;;;;;;;;22.26;30.31;96438.78;4945742;29;915;-78
2021/11/30 00:38:47;;;;;;;;;;;;;;;22.50;30.83;96435.88;4942028;29;1906;-77
2021/11/30 00:41:12;;;;;;;;;;;;;;;22.72;30.43;96424.91;4946269;29;901;-78
2021/11/30 00:43:39;;;;;;;;;;;;;;;22.51;30.22;96431.78;4960845;29;892;-78
2021/11/30 00:46:38;;;;;;;;;;;;;;;22.39;30.08;96425.13;4945177;29;905;-78
2021/11/30 00:48:56;;;;;;;;;;;;;;;22.17;30.35;96425.50;4923706;29;948;-78
2021/11/30 00:51:21;;;;;;;;;;;;;;;22.28;30.31;96431.38;4943878;29;891;-77
2021/11/30 00:53:47;;;;;;;;;;;;;;;22.48;29.94;96446.91;4976559;28;885;-78
2021/11/30 00:56:13;;;;;;;;;;;;;;;22.42;29.94;96452.47;4947166;29;975;-77
2021/11/30 00:58:38;;;;;;;;;;;;;;;22.31;30.16;96447.41;4922732;29;1879;-78
2021/11/30 01:01:04;;;;;;;;;;;;;;;22.33;29.94;96444.09;4944872;29;940;-77
2021/11/30 01:03:29;;;;;;;;;;;;;;;22.49;30.93;96448.50;4941583;29;1153;-78
2021/11/30 01:05:55;;;;;;;;;;;;;;;22.65;30.23;96439.50;4944968;29;919;-78
2021/11/30 01:08:20;;;;;;;;;;;;;;;22.70;30.08;96432.38;4942027;29;887;-79
2021/11/30 01:10:46;;;;;;;;;;;;;;;22.40;30.16;96429.53;4925393;29;921;-77
2021/11/30 01:13:11;;;;;;;;;;;;;;;22.35;29.83;96425.31;4939018;29;1364;-77
2021/11/30 01:15:38;;;;;;;;;;;;;;;22.27;30.15;96421.31;4906011;29;978;-78
2021/11/30 01:18:03;;;;;;;;;;;;;;;22.31;30.21;96416.22;4904451;29;1884;-77
2021/11/30 01:20:30;;;;;;;;;;;;;;;22.29;30.09;96418.78;4905263;29;1095;-78
2021/11/30 01:22:56;;;;;;;;;;;;;;;22.27;30.29;96418.47;4905050;29;906;-77
2021/11/30 01:25:22;;;;;;;;;;;;;;;22.17;30.53;96419.06;4905013;29;972;-77
2021/11/30 01:27:47;;;;;;;;;;;;;;;22.75;30.37;96404.09;4953885;28;1286;-79
2021/11/30 01:30:14;;;;;;;;;;;;;;;22.85;29.88;96399.09;4956509;28;1098;-78
2021/11/30 01:32:40;;;;;;;;;;;;;;;22.72;29.58;96393.72;4943594;29;894;-78
2021/11/30 01:35:05;;;;;;;;;;;;;;;22.53;29.61;96398.03;4956113;29;873;-79
2021/11/30 01:37:33;;;;;;;;;;;;;;;22.25;29.74;96404.03;4963995;28;1910;-78
2021/11/30 01:39:58;;;;;;;;;;;;;;;22.44;29.91;96412.34;4984553;28;928;-78
2021/11/30 01:42:24;;;;;;;;;;;;;;;22.41;29.84;96404.81;4986515;28;956;-77
2021/11/30 01:45:01;;;;;;;;;;;;;;;22.54;30.00;96397.56;5001100;28;882;-78
2021/11/30 01:49:55;;;;;;;;;;;;;;;22.26;30.17;96397.06;5003559;28;1013;-78
2021/11/30 01:52:21;;;;;;;;;;;;;;;22.37;29.90;96396.50;4967163;29;957;-78
2021/11/30 01:54:47;;;;;;;;;;;;;;;22.36;30.24;96380.75;4948219;29;1120;-78
2021/11/30 01:57:13;;;;;;;;;;;;;;;22.67;30.61;96370.97;4966461;29;1989;-77
2021/11/30 01:59:39;;;;;;;;;;;;;;;22.77;30.02;96367.50;4931790;29;872;-77
2021/11/30 02:02:04;;;;;;;;;;;;;;;22.52;29.91;96368.16;4928264;29;1007;-78
2021/11/30 02:04:30;;;;;;;;;;;;;;;22.39;29.97;96359.19;4944285;29;1015;-77
2021/11/30 02:06:55;;;;;;;;;;;;;;;22.28;30.27;96368.28;4946573;29;891;-77
2021/11/30 02:09:21;;;;;;;;;;;;;;;22.33;30.09;96354.19;4925818;29;1039;-76
2021/11/30 02:11:47;;;;;;;;;;;;;;;22.42;30.01;96344.00;4895558;29;1033;-77
2021/11/30 02:14:13;;;;;;;;;;;;;;;22.34;30.35;96347.25;4945501;29;1176;-77
2021/11/30 02:16:38;;;;;;;;;;;;;;;22.22;30.30;96348.31;4901688;29;936;-77
2021/11/30 02:19:04;;;;;;;;;;;;;;;22.24;30.23;96359.97;4869220;29;1892;-78
2021/11/30 02:21:33;;;;;;;;;;;;;;;22.32;30.26;96361.13;4885977;29;931;-78
2021/11/30 02:23:59;;;;;;;;;;;;;;;22.47;30.03;96351.81;4931301;29;942;-78
2021/11/30 02:26:25;;;;;;;;;;;;;;;22.50;30.66;96339.53;4947713;29;835;-78
2021/11/30 02:28:51;;;;;;;;;;;;;;;22.74;30.29;96328.81;4944360;29;811;-78
2021/11/30 02:31:17;;;;;;;;;;;;;;;22.52;30.07;96325.63;4947557;29;1078;-78
2021/11/30 02:33:43;;;;;;;;;;;;;;;22.35;30.08;96328.19;4925244;29;1035;-78
2021/11/30 02:39:13;;;;;;;;;;;;;;;22.37;29.93;96334.16;4888180;29;1989;-78
2021/11/30 02:41:38;;;;;;;;;;;;;;;22.26;30.17;96346.09;4890172;29;1025;-78
2021/11/30 02:44:04;;;;;;;;;;;;;;;22.32;30.59;96338.44;4906207;29;960;-78
2021/11/30 02:46:34;;;;;;;;;;;;;;;22.70;30.47;96336.75;4909318;29;927;-78
2021/11/30 02:48:59;;;;;;;;;;;;;;;22.77;29.96;96332.72;4924849;29;1007;-78
2021/11/30 02:51:26;;;;;;;;;;;;;;;22.50;29.86;96331.03;4927477;29;998;-79
2021/11/30 02:53:52;;;;;;;;;;;;;;;22.23;30.10;96332.13;4925198;29;832;-78
2021/11/30 02:56:17;;;;;;;;;;;;;;;22.30;29.85;96326.84;4947128;29;987;-78
2021/11/30 02:58:43;;;;;;;;;;;;;;;22.33;30.27;96320.19;4943378;29;1985;-78
2021/11/30 03:01:10;;;;;;;;;;;;;;;22.35;30.26;96311.97;4947175;29;1141;-78
2021/11/30 03:03:35;;;;;;;;;;;;;;;22.67;30.36;96300.88;4942111;29;986;-78
2021/11/30 03:06:01;;;;;;;;;;;;;;;22.87;29.61;96300.13;4947384;29;855;-79
2021/11/30 03:08:26;;;;;;;;;;;;;;;22.67;29.59;96315.03;4943454;29;1185;-78
2021/11/30 03:10:52;;;;;;;;;;;;;;;22.34;29.93;96310.41;4908710;29;1010;-78
2021/11/30 03:13:18;;;;;;;;;;;;;;;22.36;29.76;96313.53;4862476;29;1201;-78
2021/11/30 03:15:43;;;;;;;;;;;;;;;22.29;30.09;96313.94;4840927;29;991;-78
2021/11/30 03:18:09;;;;;;;;;;;;;;;22.17;30.14;96300.06;4901840;29;1982;-79
2021/11/30 03:20:34;;;;;;;;;;;;;;;22.27;30.47;96293.81;4904021;29;974;-80
2021/11/30 03:23:00;;;;;;;;;;;;;;;22.70;29.92;96284.94;4887464;29;1027;-78
2021/11/30 03:25:25;;;;;;;;;;;;;;;22.93;29.37;96291.72;4874277;29;1310;-78
2021/11/30 03:27:51;;;;;;;;;;;;;;;22.51;29.84;96284.38;4869270;29;880;-78
2021/11/30 03:30:16;;;;;;;;;;;;;;;22.33;29.77;96286.19;4869435;29;937;-78
2021/11/30 03:35:26;;;;;;;;;;;;;;;22.62;30.22;96276.03;4870296;29;923;-78
2021/11/30 03:37:51;;;;;;;;;;;;;;;22.90;29.45;96281.34;4869222;29;1982;-78
2021/11/30 03:40:17;;;;;;;;;;;;;;;23.04;28.91;96272.78;4853965;29;919;-78
2021/11/30 03:42:42;;;;;;;;;;;;;;;22.55;29.49;96296.31;4866274;29;926;-78
2021/11/30 03:45:08;;;;;;;;;;;;;;;22.32;29.55;96284.63;4868605;29;1046;-78
2021/11/30 03:47:34;;;;;;;;;;;;;;;22.33;29.53;96280.53;4885167;29;959;-78
2021/11/30 03:49:59;;;;;;;;;;;;;;;21.70;30.63;96262.94;4868010;29;1243;-78
2021/11/30 03:52:25;;;;;;;;;;;;;;;21.78;30.90;96255.66;4902275;29;928;-79
2021/11/30 03:54:50;;;;;;;;;;;;;;;22.38;29.82;96247.06;4879618;29;968;-78
2021/11/30 03:57:16;;;;;;;;;;;;;;;22.34;30.69;96245.25;4883842;29;1954;-78
2021/11/30 03:59:41;;;;;;;;;;;;;;;22.71;29.72;96230.56;4885934;29;854;-78
2021/11/30 04:02:07;;;;;;;;;;;;;;;22.74;29.64;96223.91;4907118;29;874;-78
2021/11/30 04:04:41;;;;;;;;;;;;;;;21.92;30.36;96242.75;4889839;29;971;-78
2021/11/30 04:07:06;;;;;;;;;;;;;;;22.27;30.02;96225.81;4911030;29;1068;-78
2021/11/30 04:09:32;;;;;;;;;;;;;;;22.21;29.91;96222.13;4915994;29;943;-78
2021/11/30 04:11:57;;;;;;;;;;;;;;;22.36;29.71;96220.03;4926423;29;1124;-79
2021/11/30 04:14:23;;;;;;;;;;;;;;;22.18;29.96;96203.28;4924796;29;915;-78
2021/11/30 04:16:49;;;;;;;;;;;;;;;22.23;30.23;96194.09;4926548;29;741;-78
2021/11/30 04:19:14;;;;;;;;;;;;;;;22.07;30.22;96206.69;4921689;29;1919;-78
2021/11/30 04:21:40;;;;;;;;;;;;;;;22.19;30.16;96187.84;4907035;29;815;-78
2021/11/30 04:24:05;;;;;;;;;;;;;;;22.17;30.10;96187.53;4905168;29;828;-78
2021/11/30 04:26:31;;;;;;;;;;;;;;;22.52;30.04;96189.59;4944884;28;917;-78
2021/11/30 04:28:57;;;;;;;;;;;;;;;22.70;29.66;96189.31;5000772;28;871;-79
2021/11/30 04:31:22;;;;;;;;;;;;;;;22.49;29.55;96190.59;5003252;28;854;-78
2021/11/30 04:33:48;;;;;;;;;;;;;;;22.44;29.55;96194.13;4961500;29;968;-78
2021/11/30 04:36:13;;;;;;;;;;;;;;;22.21;29.85;96193.78;4964956;29;882;-79
2021/11/30 04:38:39;;;;;;;;;;;;;;;22.54;30.18;96192.72;4963820;28;1903;-78
2021/11/30 04:41:04;;;;;;;;;;;;;;;22.73;29.60;96188.31;4979394;28;894;-78
2021/11/30 04:43:36;;;;;;;;;;;;;;;22.87;29.08;96176.13;4980172;28;951;-78
2021/11/30 04:46:06;;;;;;;;;;;;;;;22.40;29.70;96177.31;4945563;29;1417;-78
2021/11/30 04:48:33;;;;;;;;;;;;;;;22.35;29.58;96164.63;4922036;29;938;-78
2021/11/30 04:51:01;;;;;;;;;;;;;;;22.30;29.61;96168.16;4907070;29;888;-78
2021/11/30 04:53:28;;;;;;;;;;;;;;;22.36;29.52;96160.53;4921357;29;917;-78
2021/11/30 04:55:53;;;;;;;;;;;;;;;22.36;29.54;96140.69;4926104;29;908;-78
2021/11/30 04:58:19;;;;;;;;;;;;;;;22.26;29.69;96133.59;4922472;29;2054;-78
2021/11/30 05:00:44;;;;;;;;;;;;;;;22.38;29.51;96122.41;4906228;29;1125;-78
2021/11/30 05:03:10;;;;;;;;;;;;;;;22.61;29.90;96112.91;4885244;29;1097;-78
2021/11/30 05:05:35;;;;;;;;;;;;;;;22.70;29.77;96107.09;4886668;29;978;-78
2021/11/30 05:08:01;;;;;;;;;;;;;;;22.62;29.41;96112.41;4904365;29;879;-78
2021/11/30 05:10:27;;;;;;;;;;;;;;;22.27;29.79;96101.16;4905246;29;841;-78
2021/11/30 05:12:52;;;;;;;;;;;;;;;22.23;29.75;96094.16;4866885;29;1160;-78
2021/11/30 05:15:18;;;;;;;;;;;;;;;22.11;30.06;96096.03;4886008;29;992;-78
2021/11/30 05:17:43;;;;;;;;;;;;;;;22.36;30.33;96103.84;4890312;29;1911;-77
2021/11/30 05:20:09;;;;;;;;;;;;;;;22.70;29.71;96092.16;4904336;29;922;-78
2021/11/30 05:22:34;;;;;;;;;;;;;;;22.79;29.34;96084.25;4895966;29;963;-78
2021/11/30 05:25:00;;;;;;;;;;;;;;;22.41;29.56;96081.75;4888337;29;981;-78
2021/11/30 05:27:27;;;;;;;;;;;;;;;22.36;29.51;96081.19;4942243;29;934;-78
2021/11/30 05:29:52;;;;;;;;;;;;;;;22.21;30.03;96088.97;4940518;29;918;-78
2021/11/30 05:32:19;;;;;;;;;;;;;;;21.87;30.64;96089.78;4929168;29;912;-79
2021/11/30 05:34:45;;;;;;;;;;;;;;;22.21;30.10;96103.13;4954567;29;1261;-78
2021/11/30 05:37:10;;;;;;;;;;;;;;;22.34;29.64;96100.75;4980039;28;1879;-78
2021/11/30 05:39:35;;;;;;;;;;;;;;;22.35;29.54;96098.69;4979255;28;1001;-78
2021/11/30 05:42:01;;;;;;;;;;;;;;;22.19;30.14;96094.38;4980926;28;914;-79
2021/11/30 05:44:26;;;;;;;;;;;;;;;22.58;30.06;96100.50;4978611;28;910;-78
2021/11/30 05:46:52;;;;;;;;;;;;;;;22.65;29.76;96102.16;4980630;28;935;-78
2021/11/30 05:49:18;;;;;;;;;;;;;;;22.65;29.45;96096.47;4964711;28;1041;-78
2021/11/30 05:51:43;;;;;;;;;;;;;;;22.58;29.22;96096.88;4961232;29;1018;-78
2021/11/30 05:54:09;;;;;;;;;;;;;;;22.42;29.87;96091.81;4921156;29;960;-78
2021/11/30 05:56:34;;;;;;;;;;;;;;;22.18;29.91;96089.19;4922934;29;949;-79
2021/11/30 05:59:00;;;;;;;;;;;;;;;22.61;30.22;96084.56;4920915;29;1983;-78
2021/11/30 06:01:30;;;;;;;;;;;;;;;22.78;29.67;96077.00;4904197;29;997;-78
2021/11/30 06:03:58;;;;;;;;;;;;;;;22.85;29.48;96070.91;4901860;29;946;-78
2021/11/30 06:06:24;;;;;;;;;;;;;;;22.41;29.52;96070.41;4941527;29;1208;-78
2021/11/30 06:08:50;;;;;;;;;;;;;;;22.25;29.57;96064.03;4939173;29;1228;-78
2021/11/30 06:11:16;;;;;;;;;;;;;;;22.23;29.82;96052.44;4958200;28;1316;-78
2021/11/30 06:13:42;;;;;;;;;;;;;;;22.38;29.58;96051.56;4909762;29;982;-79
2021/11/30 06:16:07;;;;;;;;;;;;;;;22.17;29.95;96045.13;4889184;29;913;-78
2021/11/30 06:18:33;;;;;;;;;;;;;;;22.23;30.09;96046.78;4901343;29;1935;-78
2021/11/30 06:20:58;;;;;;;;;;;;;;;22.61;30.08;96056.22;4942051;29;871;-78
2021/11/30 06:23:24;;;;;;;;;;;;;;;22.79;29.56;96033.19;4939505;29;1010;-78
2021/11/30 06:25:49;;;;;;;;;;;;;;;22.80;29.17;96029.09;4916521;29;867;-79
2021/11/30 06:28:15;;;;;;;;;;;;;;;22.42;29.61;96013.22;4904801;29;963;-78
2021/11/30 06:30:41;;;;;;;;;;;;;;;22.24;29.90;96005.84;4907270;29;808;-79
2021/11/30 06:33:06;;;;;;;;;;;;;;;22.33;29.58;95991.53;4920034;29;997;-78
2021/11/30 06:35:32;;;;;;;;;;;;;;;22.32;29.66;95981.44;4925318;29;1219;-79
2021/11/30 06:37:57;;;;;;;;;;;;;;;22.38;29.90;95958.06;4924839;29;1883;-78
2021/11/30 06:40:23;;;;;;;;;;;;;;;22.34;29.77;95947.75;4939417;29;931;-79
2021/11/30 06:42:48;;;;;;;;;;;;;;;22.24;30.11;95918.03;4945315;29;943;-78
2021/11/30 06:45:14;;;;;;;;;;;;;;;22.18;30.26;95883.19;4905849;29;1007;-78
2021/11/30 06:47:42;;;;;;;;;;;;;;;22.34;30.67;95820.25;4885387;29;1040;-78
2021/11/30 06:50:08;;;;;;;;;;;;;;;22.65;30.00;95813.00;4849291;29;1037;-77
2021/11/30 06:52:33;;;;;;;;;;;;;;;22.69;29.88;95844.75;4836976;29;947;-78
2021/11/30 06:54:59;;;;;;;;;;;;;;;22.44;29.76;95865.41;4848749;29;959;-78
2021/11/30 06:57:24;;;;;;;;;;;;;;;22.20;30.06;95857.97;4869383;29;1984;-79
2021/11/30 06:59:50;;;;;;;;;;;;;;;22.21;30.09;95853.06;4867567;29;930;-79
2021/11/30 07:02:16;;;;;;;;;;;;;;;22.17;30.69;95858.97;4869518;29;951;-78
2021/11/30 07:04:47;;;;;;;;;;;;;;;22.71;29.73;95861.22;4867447;29;987;-78
2021/11/30 07:07:39;;;;;;;;;;;;;;;22.85;29.33;95860.31;4850773;29;1077;-78
2021/11/30 07:10:11;;;;;;;;;;;;;;;22.98;29.35;95874.06;4849159;29;907;-78
2021/11/30 07:15:03;;;;;;;;;;;;;;;22.48;29.68;95888.59;4868014;29;997;-78
2021/11/30 07:17:29;;;;;;;;;;;;;;;22.56;29.52;95895.38;4925043;29;1978;-78
2021/11/30 07:19:54;;;;;;;;;;;;;;;22.47;29.88;95898.38;4923565;29;931;-78
2021/11/30 07:22:20;;;;;;;;;;;;;;;22.41;29.83;95911.72;4944027;29;927;-78
2021/11/30 07:24:46;;;;;;;;;;;;;;;22.35;30.11;95915.28;4918616;29;1074;-78
2021/11/30 07:27:11;;;;;;;;;;;;;;;22.10;30.27;95927.34;4925268;29;953;-78
2021/11/30 07:29:37;;;;;;;;;;;;;;;22.21;30.17;95949.38;4904567;29;1224;-78
2021/11/30 07:32:02;;;;;;;;;;;;;;;22.26;30.01;95957.94;4906379;29;937;-78
2021/11/30 07:34:29;;;;;;;;;;;;;;;22.38;30.10;95975.84;4942135;29;900;-78
2021/11/30 07:36:54;;;;;;;;;;;;;;;22.24;29.83;95983.19;4925845;29;1318;-78
2021/11/30 07:39:20;;;;;;;;;;;;;;;22.37;30.31;95985.63;4942115;29;1906;-78
2021/11/30 07:41:45;;;;;;;;;;;;;;;22.67;30.27;95997.53;4906433;29;907;-79
2021/11/30 07:44:11;;;;;;;;;;;;;;;22.81;29.62;95993.03;4903871;29;816;-78
2021/11/30 07:46:37;;;;;;;;;;;;;;;22.35;29.90;95997.47;4905427;29;1129;-79
2021/11/30 07:49:03;;;;;;;;;;;;;;;22.34;29.84;95995.91;4903988;29;1006;-78
2021/11/30 07:51:28;;;;;;;;;;;;;;;22.38;29.98;95998.50;4868814;29;988;-78
2021/11/30 07:53:54;;;;;;;;;;;;;;;22.37;29.97;95996.94;4867955;29;1323;-78
2021/11/30 07:56:20;;;;;;;;;;;;;;;22.31;29.71;95988.38;4862658;29;1019;-78
2021/11/30 07:58:45;;;;;;;;;;;;;;;22.49;30.16;95992.19;4865942;29;1903;-78
2021/11/30 08:01:12;;;;;;;;;;;;;;;22.65;29.72;95999.31;4842314;29;996;-78
2021/11/30 08:03:37;;;;;;;;;;;;;;;22.84;29.48;95995.63;4829715;29;1018;-78
2021/11/30 08:06:03;;;;;;;;;;;;;;;22.76;28.81;96011.53;4868978;29;1023;-78
2021/11/30 08:08:29;;;;;;;;;;;;;;;22.49;29.27;96009.22;4897579;29;990;-78
2021/11/30 08:10:54;;;;;;;;;;;;;;;22.34;29.59;96014.97;4944166;29;1208;-78
2021/11/30 08:13:20;;;;;;;;;;;;;;;21.89;31.30;96013.59;4940445;29;1072;-79
2021/11/30 08:15:45;;;;;;;;;;;;;;;22.82;30.00;96020.09;4939125;29;871;-74
2021/11/30 08:18:11;;;;;;;;;;;;;;;22.38;30.51;96020.41;4923618;29;1982;-77
2021/11/30 08:20:36;;;;;;;;;;;;;;;22.90;29.90;96037.44;4940578;29;1095;-78
2021/11/30 08:23:03;;;;;;;;;;;;;;;22.80;29.88;96029.09;4940435;29;871;-78
2021/11/30 08:25:29;;;;;;;;;;;;;;;22.65;30.21;96027.66;4909311;29;994;-78
2021/11/30 08:27:55;;;;;;;;;;;;;;;22.59;29.92;96036.88;4920821;29;1168;-78
2021/11/30 08:30:21;;;;;;;;;;;;;;;22.50;30.05;96037.03;4936395;29;960;-78
2021/11/30 08:32:47;;;;;;;;;;;;;;;21.68;31.31;96029.78;4922164;29;922;-77
2021/11/30 08:35:12;;;;;;;;;;;;;;;22.36;30.31;96035.06;4921489;29;883;-78
2021/11/30 08:37:38;;;;;;;;;;;;;;;22.38;29.70;96038.16;4922799;29;1903;-78
2021/11/30 08:40:07;;;;;;;;;;;;;;;22.35;29.58;96045.63;4921307;29;950;-78
2021/11/30 08:42:32;;;;;;;;;;;;;;;22.43;29.21;96045.19;4934733;28;978;-78
2021/11/30 08:44:58;;;;;;;;;;;;;;;22.66;28.81;96041.34;4940795;29;1026;-79
2021/11/30 08:47:24;;;;;;;;;;;;;;;22.69;28.34;96053.72;4904579;29;1152;-79
2021/11/30 08:49:50;;;;;;;;;;;;;;;22.73;28.17;96046.53;4921043;29;971;-78
2021/11/30 08:52:17;;;;;;;;;;;;;;;22.93;27.70;96048.59;4923261;29;824;-78
2021/11/30 08:54:43;;;;;;;;;;;;;;;22.45;28.37;96065.31;4921918;29;822;-78
2021/11/30 08:57:08;;;;;;;;;;;;;;;22.25;28.80;96072.53;4923592;29;918;-78
2021/11/30 08:59:35;;;;;;;;;;;;;;;22.01;29.02;96067.03;4921050;29;1918;-78
2021/11/30 09:02:00;;;;;;;;;;;;;;;22.51;28.15;96072.59;4904347;29;1275;-77
2021/11/30 09:04:26;;;;;;;;;;;;;;;22.67;27.76;96076.91;4916079;29;1213;-79
2021/11/30 09:06:52;;;;;;;;;;;;;;;22.80;27.53;96068.81;4927586;29;917;-78
2021/11/30 09:09:18;;;;;;;;;;;;;;;22.69;27.20;96084.91;4950476;29;914;-78
2021/11/30 09:11:43;;;;;;;;;;;;;;;22.33;27.99;96079.34;4961141;29;1190;-78
2021/11/30 09:14:09;;;;;;;;;;;;;;;22.33;27.76;96081.41;4960034;29;921;-78
2021/11/30 09:16:35;;;;;;;;;;;;;;;22.58;27.04;96091.22;4991561;28;946;-79
2021/11/30 09:19:00;;;;;;;;;;;;;;;22.53;27.18;96089.09;4964213;28;1887;-78
2021/11/30 09:21:26;;;;;;;;;;;;;;;21.88;27.92;96085.66;4976192;28;991;-78
2021/11/30 09:23:52;;;;;;;;;;;;;;;22.26;27.40;96099.59;4977939;28;999;-78
2021/11/30 09:26:18;;;;;;;;;;;;;;;22.25;27.64;96092.38;4980542;28;839;-78
2021/11/30 09:28:43;;;;;;;;;;;;;;;21.62;28.38;96086.31;4977228;28;1190;-77
2021/11/30 09:31:09;;;;;;;;;;;;;;;21.47;28.14;96079.91;4981942;28;853;-78
2021/11/30 09:33:34;;;;;;;;;;;;;;;21.83;27.60;96085.09;4977561;28;838;-79
2021/11/30 09:36:00;;;;;;;;;;;;;;;22.02;27.49;96090.47;4981258;28;913;-78
2021/11/30 09:38:25;;;;;;;;;;;;;;;22.33;26.70;96092.75;4962802;28;1907;-78
2021/11/30 09:40:57;;;;;;;;;;;;;;;22.69;26.08;96090.56;4980708;28;901;-79
2021/11/30 09:43:22;;;;;;;;;;;;;;;22.38;26.49;96094.06;4943262;28;1196;-78
2021/11/30 09:45:48;;;;;;;;;;;;;;;22.53;26.53;96095.53;4965016;28;859;-77
2021/11/30 09:48:14;;;;;;;;;;;;;;;22.27;26.53;96089.81;4978303;28;936;-78
2021/11/30 09:50:40;;;;;;;;;;;;;;;22.30;26.06;96100.16;4964929;28;1120;-78
2021/11/30 09:53:06;;;;;;;;;;;;;;;22.36;26.15;96098.19;4975030;28;968;-78
2021/11/30 09:55:32;;;;;;;;;;;;;;;22.59;25.82;96104.13;4976636;28;787;-78
2021/11/30 09:57:57;;;;;;;;;;;;;;;21.74;27.08;96098.59;4921203;29;1902;-78
2021/11/30 10:00:23;;;;;;;;;;;;;;;22.21;26.18;96103.13;4925739;29;988;-78
2021/11/30 10:02:49;;;;;;;;;;;;;;;22.31;25.92;96104.56;4944543;29;911;-78
2021/11/30 10:05:15;;;;;;;;;;;;;;;22.44;25.63;96103.44;4890377;29;1217;-78
2021/11/30 10:07:44;;;;;;;;;;;;;;;22.35;25.58;96102.28;4906940;29;1002;-78
2021/11/30 10:10:16;;;;;;;;;;;;;;;22.47;25.47;96105.25;4905553;29;798;-78
2021/11/30 10:12:42;;;;;;;;;;;;;;;22.60;25.17;96117.03;4925382;29;1117;-78
2021/11/30 10:15:08;;;;;;;;;;;;;;;22.60;25.08;96125.53;4905745;29;2024;-78
2021/11/30 10:17:36;;;;;;;;;;;;;;;22.55;25.24;96120.56;4890769;29;1982;-78
2021/11/30 10:20:04;;;;;;;;;;;;;;;22.39;25.15;96136.09;4904984;29;899;-78
2021/11/30 10:22:36;;;;;;;;;;;;;;;22.46;25.26;96129.22;4907095;29;843;-78
2021/11/30 10:25:15;;;;;;;;;;;;;;;22.53;25.08;96134.44;4905532;29;868;-78
2021/11/30 10:27:44;;;;;;;;;;;;;;;22.61;24.84;96147.72;4900690;29;969;-78
2021/11/30 10:30:10;;;;;;;;;;;;;;;22.76;24.65;96146.84;4886428;29;952;-78
2021/11/30 10:32:36;;;;;;;;;;;;;;;22.59;24.97;96158.78;4887968;29;872;-78
2021/11/30 10:35:01;;;;;;;;;;;;;;;22.50;25.02;96164.56;4899158;29;925;-78
2021/11/30 10:37:27;;;;;;;;;;;;;;;22.84;24.57;96176.31;4942619;29;1983;-78
2021/11/30 10:39:52;;;;;;;;;;;;;;;22.50;25.05;96186.47;4937230;29;828;-78
2021/11/30 10:42:19;;;;;;;;;;;;;;;22.30;25.55;96205.00;4963881;29;1213;-78
2021/11/30 10:44:45;;;;;;;;;;;;;;;22.52;25.05;96209.41;4961681;29;1092;-79
2021/11/30 10:47:12;;;;;;;;;;;;;;;22.49;25.31;96219.69;5000267;28;861;-78
2021/11/30 10:49:44;;;;;;;;;;;;;;;21.77;26.19;96231.44;5012033;28;960;-79
2021/11/30 10:52:10;;;;;;;;;;;;;;;21.73;26.23;96233.69;5022083;28;979;-78
2021/11/30 10:54:37;;;;;;;;;;;;;;;21.99;25.97;96242.34;5017834;28;742;-78
2021/11/30 10:57:02;;;;;;;;;;;;;;;21.82;26.40;96253.41;5006375;28;833;-78
2021/11/30 10:59:28;;;;;;;;;;;;;;;21.90;26.02;96262.28;5020598;28;1910;-78
2021/11/30 11:01:54;;;;;;;;;;;;;;;21.74;26.31;96257.88;5002410;28;1093;-79
2021/11/30 11:04:21;;;;;;;;;;;;;;;22.19;25.65;96260.72;5004441;28;921;-78
2021/11/30 11:07:03;;;;;;;;;;;;;;;22.21;25.95;96266.66;4966034;28;1128;-78
2021/11/30 11:09:43;;;;;;;;;;;;;;;22.02;26.04;96254.72;4980464;28;915;-78
2021/11/30 11:12:10;;;;;;;;;;;;;;;21.97;26.39;96270.38;4983461;28;1029;-78
2021/11/30 11:14:46;;;;;;;;;;;;;;;22.40;25.41;96270.06;4980842;28;878;-78
2021/11/30 11:17:11;;;;;;;;;;;;;;;22.90;24.82;96267.16;4966584;28;1492;-78
2021/11/30 11:19:38;;;;;;;;;;;;;;;22.66;25.17;96256.00;4981001;28;1922;-78
2021/11/30 11:22:12;;;;;;;;;;;;;;;22.02;25.84;96261.22;4967599;28;1124;-79
2021/11/30 11:24:38;;;;;;;;;;;;;;;22.04;25.94;96269.19;4984002;28;1032;-79
2021/11/30 11:27:04;;;;;;;;;;;;;;;22.01;26.01;96281.50;4979702;28;966;-78
2021/11/30 11:29:30;;;;;;;;;;;;;;;22.77;24.97;96282.44;4980939;28;956;-78
2021/11/30 11:32:07;;;;;;;;;;;;;;;22.94;24.47;96298.94;4944188;29;977;-78
2021/11/30 11:34:33;;;;;;;;;;;;;;;23.03;24.77;96307.31;4942275;29;1008;-79
2021/11/30 11:36:59;;;;;;;;;;;;;;;22.04;26.31;96311.69;4943914;29;860;-79
2021/11/30 11:39:24;;;;;;;;;;;;;;;22.57;25.35;96299.41;4941443;29;1931;-78
2021/11/30 11:41:53;;;;;;;;;;;;;;;22.48;25.52;96302.38;4943883;29;847;-79
2021/11/30 11:44:19;;;;;;;;;;;;;;;22.74;24.94;96308.97;4962268;28;933;-78
2021/11/30 11:46:47;;;;;;;;;;;;;;;22.05;25.94;96316.84;4965655;28;1108;-79
2021/11/30 11:49:13;;;;;;;;;;;;;;;22.29;26.04;96322.44;4980426;28;901;-78
2021/11/30 11:51:39;;;;;;;;;;;;;;;22.61;25.22;96325.50;4963157;29;1054;-79
2021/11/30 11:54:06;;;;;;;;;;;;;;;22.60;25.09;96327.56;4960992;29;870;-78
2021/11/30 11:56:32;;;;;;;;;;;;;;;22.58;25.08;96335.78;4942856;29;1075;-78
2021/11/30 11:59:17;;;;;;;;;;;;;;;22.25;26.00;96346.56;4958027;28;1997;-79
2021/11/30 12:01:43;;;;;;;;;;;;;;;21.88;26.46;96357.47;4962660;28;875;-78
2021/11/30 12:04:09;;;;;;;;;;;;;;;22.44;25.61;96364.94;4960440;29;1062;-77
2021/11/30 12:06:36;;;;;;;;;;;;;;;22.56;25.25;96365.91;4962498;28;989;-78
2021/11/30 12:09:20;;;;;;;;;;;;;;;22.55;25.47;96375.69;4960554;28;947;-78
2021/11/30 12:11:48;;;;;;;;;;;;;;;22.43;25.80;96379.59;4962294;28;1174;-78
2021/11/30 12:14:15;;;;;;;;;;;;;;;22.61;25.28;96377.31;4960435;28;913;-79
2021/11/30 12:16:59;;;;;;;;;;;;;;;22.45;25.54;96391.22;4943155;29;962;-78
2021/11/30 12:19:25;;;;;;;;;;;;;;;22.36;25.60;96404.22;4941200;29;1903;-78
2021/11/30 12:21:50;;;;;;;;;;;;;;;22.45;25.73;96399.72;4961522;28;925;-78
2021/11/30 12:24:16;;;;;;;;;;;;;;;22.46;25.39;96406.94;4960473;28;834;-78
2021/11/30 12:26:41;;;;;;;;;;;;;;;22.43;25.69;96414.38;4967747;28;944;-78
2021/11/30 12:29:20;;;;;;;;;;;;;;;22.39;25.52;96425.13;4979387;28;842;-78
2021/11/30 12:31:46;;;;;;;;;;;;;;;22.39;25.39;96432.88;5004508;28;1204;-78
2021/11/30 12:34:11;;;;;;;;;;;;;;;22.43;25.44;96439.09;5018585;28;1243;-78
2021/11/30 12:36:40;;;;;;;;;;;;;;;22.23;25.74;96446.22;4978123;28;1284;-78
2021/11/30 12:39:07;;;;;;;;;;;;;;;22.24;25.60;96447.78;4959979;29;1914;-79
2021/11/30 12:41:39;;;;;;;;;;;;;;;21.98;26.24;96449.59;4978122;28;950;-78
2021/11/30 12:44:08;;;;;;;;;;;;;;;22.43;25.56;96456.09;4959868;29;714;-78
2021/11/30 12:46:38;;;;;;;;;;;;;;;22.30;25.46;96468.50;4947399;28;922;-78
2021/11/30 12:49:29;;;;;;;;;;;;;;;21.91;26.48;96469.75;4982466;28;894;-78
2021/11/30 12:52:04;;;;;;;;;;;;;;;22.01;26.48;96480.53;4999949;28;1145;-78
2021/11/30 12:54:29;;;;;;;;;;;;;;;22.64;25.14;96480.47;4998275;28;796;-79
2021/11/30 12:56:55;;;;;;;;;;;;;;;22.63;25.17;96495.88;4999931;28;1036;-78
2021/11/30 12:59:42;;;;;;;;;;;;;;;22.39;25.35;96495.22;4978883;28;1910;-79
2021/11/30 13:02:21;;;;;;;;;;;;;;;22.10;25.84;96510.84;4980666;28;828;-78
2021/11/30 13:04:47;;;;;;;;;;;;;;;22.06;26.07;96527.22;4963002;28;1211;-78
2021/11/30 13:07:14;;;;;;;;;;;;;;;22.53;25.25;96525.59;4994056;28;915;-78
2021/11/30 13:09:40;;;;;;;;;;;;;;;22.23;25.73;96547.44;5018494;28;803;-78
2021/11/30 13:12:11;;;;;;;;;;;;;;;22.38;25.66;96553.13;5003164;28;1250;-78
2021/11/30 13:14:39;;;;;;;;;;;;;;;22.25;26.09;96568.34;5030462;28;845;-78